createdAt,value
2022-09-03T00:03:00.797Z,97222.66
2022-09-03T00:05:45.858Z,97217.47
2022-09-03T00:08:33.523Z,97219.03
2022-09-03T00:11:18.756Z,97207.38
2022-09-03T00:13:52.143Z,97214.09
2022-09-03T00:16:25.845Z,97213.25
2022-09-03T00:19:00.695Z,97207.03
2022-09-03T00:21:45.589Z,97216.72
2022-09-03T00:24:18.102Z,97215.34
2022-09-03T00:26:55.082Z,97216.91
2022-09-03T00:29:35.641Z,97211.38
2022-09-03T00:32:14.104Z,97213.28
2022-09-03T00:34:52.642Z,97216.31
2022-09-03T00:37:21.536Z,97216.03
2022-09-03T00:39:49.861Z,97211.47
2022-09-03T00:43:02.112Z,97213.34
2022-09-03T00:45:48.399Z,97208.25
2022-09-03T00:48:28.738Z,97201.25
2022-09-03T00:51:00.968Z,97208.34
2022-09-03T00:53:52.159Z,97200.69
2022-09-03T00:56:43.763Z,97204.56
2022-09-03T00:59:35.819Z,97204.81
2022-09-03T01:02:29.173Z,97202.69
2022-09-03T01:05:16.642Z,97206.81
2022-09-03T01:08:02.030Z,97209.72
2022-09-03T01:10:34.565Z,97218.84
2022-09-03T01:13:21.961Z,97212.53
2022-09-03T01:16:06.617Z,97205.97
2022-09-03T01:18:58.619Z,97206.19
2022-09-03T01:21:49.945Z,97200.78
2022-09-03T01:24:59.343Z,97207.84
2022-09-03T01:28:20.567Z,97211.63
2022-09-03T01:31:26.874Z,97209.72
2022-09-03T01:34:01.515Z,97205.97
2022-09-03T01:37:23.162Z,97210.81
2022-09-03T01:40:31.414Z,97204.56
2022-09-03T01:43:20.317Z,97211.78
2022-09-03T01:46:00.810Z,97208.97
2022-09-03T01:49:16.575Z,97209.47
2022-09-03T01:51:45.337Z,97207.81
2022-09-03T01:54:35.116Z,97213.72
2022-09-03T01:57:35.582Z,97211.84
2022-09-03T02:00:22.755Z,97205.69
2022-09-03T02:02:53.058Z,97211.69
2022-09-03T02:05:25.802Z,97216.06
2022-09-03T02:08:14.127Z,97219.59
2022-09-03T02:10:53.467Z,97218.75
2022-09-03T02:13:27.398Z,97214.16
2022-09-03T02:16:02.387Z,97214.06
2022-09-03T02:18:37.284Z,97208.81
2022-09-03T02:21:07.180Z,97201.16
2022-09-03T02:23:35.775Z,97215.53
2022-09-03T02:26:04.136Z,97226.38
2022-09-03T02:28:33.176Z,97224.97
2022-09-03T02:31:01.233Z,97225.19
2022-09-03T02:33:40.782Z,97230.03
2022-09-03T02:36:16.837Z,97226.75
2022-09-03T02:38:46.282Z,97223.69
2022-09-03T02:41:15.441Z,97223.13
2022-09-03T02:43:54.044Z,97216.78
2022-09-03T02:46:32.995Z,97212.13
2022-09-03T02:49:00.872Z,97210.13
2022-09-03T02:51:37.359Z,97210.38
2022-09-03T02:54:06.407Z,97197.66
2022-09-03T02:56:34.796Z,97204.16
2022-09-03T02:59:05.044Z,97198.47
2022-09-03T03:01:33.176Z,97197.41
2022-09-03T03:04:01.188Z,97199.38
2022-09-03T03:06:29.059Z,97216.78
2022-09-03T03:08:57.239Z,97213.84
2022-09-03T03:11:26.391Z,97207.97
2022-09-03T03:13:54.302Z,97208.28
2022-09-03T03:16:22.283Z,97214.06
2022-09-03T03:18:50.901Z,97211.34
2022-09-03T03:21:19.544Z,97218.63
2022-09-03T03:23:47.394Z,97216.41
2022-09-03T03:26:18.725Z,97218.28
2022-09-03T03:28:49.063Z,97212.88
2022-09-03T03:31:20.784Z,97220.19
2022-09-03T03:34:00.560Z,97210.16
2022-09-03T03:36:32.368Z,97210.44
2022-09-03T03:39:01.369Z,97211.47
2022-09-03T03:41:33.584Z,97207.97
2022-09-03T03:44:06.161Z,97216.31
2022-09-03T03:46:39.803Z,97215.50
2022-09-03T03:49:08.924Z,97212.34
2022-09-03T03:51:37.319Z,97206.34
2022-09-03T03:54:05.854Z,97211.44
2022-09-03T03:56:35.522Z,97218.75
2022-09-03T03:59:04.833Z,97218.75
2022-09-03T04:01:32.890Z,97216.84
2022-09-03T04:04:00.750Z,97218.25
2022-09-03T04:06:29.559Z,97222.59
2022-09-03T04:08:57.492Z,97222.13
2022-09-03T04:11:26.467Z,97211.31
2022-09-03T04:13:54.753Z,97212.34
2022-09-03T04:16:27.593Z,97215.41
2022-09-03T04:18:56.972Z,97215.63
2022-09-03T04:21:30.736Z,97217.19
2022-09-03T04:23:58.893Z,97216.84
2022-09-03T04:26:33.155Z,97214.13
2022-09-03T04:29:09.979Z,97220.72
2022-09-03T04:31:39.047Z,97224.25
2022-09-03T04:34:07.978Z,97216.72
2022-09-03T04:36:37.473Z,97212.34
2022-09-03T04:39:05.250Z,97220.00
2022-09-03T04:41:33.066Z,97213.50
2022-09-03T04:44:00.916Z,97218.34
2022-09-03T04:46:33.659Z,97224.84
2022-09-03T04:49:02.513Z,97223.19
2022-09-03T04:51:31.577Z,97219.09
2022-09-03T04:54:02.187Z,97225.81
2022-09-03T04:56:33.494Z,97226.84
2022-09-03T04:59:08.343Z,97224.16
2022-09-03T05:01:39.331Z,97234.41
2022-09-03T05:04:08.733Z,97229.22
2022-09-03T05:06:37.404Z,97225.94
2022-09-03T05:09:06.375Z,97220.28
2022-09-03T05:11:34.201Z,97223.91
2022-09-03T05:14:02.324Z,97238.03
2022-09-03T05:16:31.048Z,97235.91
2022-09-03T05:19:00.898Z,97235.69
2022-09-03T05:21:30.069Z,97239.09
2022-09-03T05:23:59.935Z,97237.34
2022-09-03T05:26:31.977Z,97239.69
2022-09-03T05:29:03.022Z,97239.59
2022-09-03T05:31:32.174Z,97239.00
2022-09-03T05:34:04.216Z,97236.88
2022-09-03T05:36:35.755Z,97236.97
2022-09-03T05:39:05.865Z,97247.94
2022-09-03T05:41:34.378Z,97251.56
2022-09-03T05:44:04.058Z,97245.69
2022-09-03T05:46:33.784Z,97247.91
2022-09-03T05:49:04.988Z,97248.47
2022-09-03T05:51:35.672Z,97239.88
2022-09-03T05:54:04.012Z,97247.50
2022-09-03T05:56:33.561Z,97248.34
2022-09-03T05:59:06.862Z,97241.97
2022-09-03T06:01:38.081Z,97254.53
2022-09-03T06:04:10.620Z,97252.41
2022-09-03T06:06:43.538Z,97262.75
2022-09-03T06:09:15.955Z,97269.56
2022-09-03T06:11:45.461Z,97263.06
2022-09-03T06:14:15.326Z,97260.38
2022-09-03T06:16:46.485Z,97270.16
2022-09-03T06:19:14.415Z,97264.50
2022-09-03T06:21:44.418Z,97266.38
2022-09-03T06:24:18.135Z,97267.53
2022-09-03T06:26:46.634Z,97274.34
2022-09-03T06:29:15.557Z,97272.47
2022-09-03T06:31:43.473Z,97276.81
2022-09-03T06:34:12.445Z,97271.66
2022-09-03T06:36:43.957Z,97270.44
2022-09-03T06:39:11.751Z,97267.81
2022-09-03T06:41:40.214Z,97273.53
2022-09-03T06:44:11.823Z,97273.31
2022-09-03T06:46:44.362Z,97272.50
2022-09-03T06:49:13.000Z,97275.78
2022-09-03T06:51:41.178Z,97274.72
2022-09-03T06:54:11.768Z,97272.59
2022-09-03T06:56:42.688Z,97266.22
2022-09-03T06:59:14.272Z,97266.78
2022-09-03T07:01:45.333Z,97272.31
2022-09-03T07:04:20.405Z,97271.31
2022-09-03T07:06:48.436Z,97271.16
2022-09-03T07:09:18.327Z,97269.34
2022-09-03T07:11:48.078Z,97263.09
2022-09-03T07:14:21.227Z,97284.06
2022-09-03T07:16:50.598Z,97285.44
2022-09-03T07:19:18.774Z,97295.81
2022-09-03T07:21:50.714Z,97286.09
2022-09-03T07:24:22.219Z,97284.88
2022-09-03T07:26:50.672Z,97294.72
2022-09-03T07:29:21.997Z,97296.63
2022-09-03T07:31:51.888Z,97295.81
2022-09-03T07:34:25.525Z,97294.47
2022-09-03T07:36:54.894Z,97298.84
2022-09-03T07:39:22.940Z,97293.66
2022-09-03T07:41:50.874Z,97298.53
2022-09-03T07:44:20.079Z,97301.22
2022-09-03T07:46:50.849Z,97296.72
2022-09-03T07:49:22.008Z,97294.81
2022-09-03T07:51:52.391Z,97299.09
2022-09-03T07:54:21.670Z,97301.28
2022-09-03T07:56:49.520Z,97295.38
2022-09-03T07:59:17.389Z,97305.09
2022-09-03T08:01:45.180Z,97304.38
2022-09-03T08:04:13.657Z,97313.63
2022-09-03T08:06:42.306Z,97307.22
2022-09-03T08:09:13.796Z,97320.63
2022-09-03T08:11:47.218Z,97314.31
2022-09-03T08:14:19.127Z,97320.22
2022-09-03T08:16:48.295Z,97318.91
2022-09-03T08:19:18.620Z,97326.06
2022-09-03T08:21:47.430Z,97329.94
2022-09-03T08:24:18.453Z,97331.88
2022-09-03T08:26:51.332Z,97333.53
2022-09-03T08:29:20.924Z,97329.94
2022-09-03T08:31:48.857Z,97338.63
2022-09-03T08:34:17.913Z,97336.34
2022-09-03T08:36:47.238Z,97339.38
2022-09-03T08:39:15.896Z,97343.72
2022-09-03T08:41:49.250Z,97341.81
2022-09-03T08:44:47.232Z,97342.75
2022-09-03T08:47:33.012Z,97344.16
2022-09-03T08:50:26.666Z,97341.50
2022-09-03T08:53:04.626Z,97347.50
2022-09-03T08:55:36.390Z,97352.03
2022-09-03T08:58:10.867Z,97354.31
2022-09-03T09:01:17.276Z,97359.50
2022-09-03T09:03:48.023Z,97366.13
2022-09-03T09:06:50.229Z,97367.41
2022-09-03T09:09:36.727Z,97368.41
2022-09-03T09:12:44.226Z,97367.81
2022-09-03T09:15:52.102Z,97367.66
2022-09-03T09:18:41.027Z,97363.72
2022-09-03T09:21:32.475Z,97371.28
2022-09-03T09:24:08.822Z,97381.75
2022-09-03T09:26:43.372Z,97376.84
2022-09-03T09:29:13.464Z,97382.66
2022-09-03T09:31:44.744Z,97377.31
2022-09-03T09:34:12.588Z,97376.06
2022-09-03T09:36:49.843Z,97363.13
2022-09-03T09:39:32.912Z,97371.00
2022-09-03T09:42:11.129Z,97352.41
2022-09-03T09:44:42.051Z,97355.50
2022-09-03T09:47:34.761Z,97351.03
2022-09-03T09:50:04.394Z,97346.16
2022-09-03T09:52:32.522Z,97341.78
2022-09-03T09:55:14.616Z,97341.50
2022-09-03T09:57:42.394Z,97336.75
2022-09-03T10:00:18.701Z,97350.63
2022-09-03T10:02:54.758Z,97350.78
2022-09-03T10:05:27.873Z,97353.63
2022-09-03T10:08:04.468Z,97344.09
2022-09-03T10:10:43.109Z,97340.16
2022-09-03T10:13:25.871Z,97335.97
2022-09-03T10:16:03.149Z,97331.31
2022-09-03T10:19:12.381Z,97330.75
2022-09-03T10:22:23.348Z,97324.91
2022-09-03T10:25:01.194Z,97319.31
2022-09-03T10:27:30.155Z,97326.25
2022-09-03T10:30:00.746Z,97338.63
2022-09-03T10:32:50.138Z,97331.34
2022-09-03T10:35:31.184Z,97325.22
2022-09-03T10:38:10.729Z,97317.41
2022-09-03T10:40:53.333Z,97322.03
2022-09-03T10:44:00.158Z,97322.91
2022-09-03T10:46:38.622Z,97323.44
2022-09-03T10:49:53.954Z,97320.72
2022-09-03T10:52:38.258Z,97307.38
2022-09-03T10:55:48.207Z,97313.69
2022-09-03T10:59:04.995Z,97311.56
2022-09-03T11:01:52.342Z,97305.91
2022-09-03T11:04:54.520Z,97312.16
2022-09-03T11:07:30.767Z,97303.72
2022-09-03T11:10:21.985Z,97289.28
2022-09-03T11:13:41.681Z,97295.03
2022-09-03T11:16:27.769Z,97306.53
2022-09-03T11:19:16.700Z,97294.25
2022-09-03T11:21:45.905Z,97295.91
2022-09-03T11:24:26.827Z,97295.94
2022-09-03T11:27:15.772Z,97290.47
2022-09-03T11:29:54.002Z,97287.47
2022-09-03T11:32:41.078Z,97294.88
2022-09-03T11:35:28.680Z,97295.44
2022-09-03T11:38:16.671Z,97298.75
2022-09-03T11:41:00.063Z,97299.06
2022-09-03T11:43:30.514Z,97293.63
2022-09-03T11:46:13.339Z,97281.09
2022-09-03T11:48:48.457Z,97282.72
2022-09-03T11:51:25.091Z,97277.28
2022-09-03T11:54:00.883Z,97280.28
2022-09-03T11:56:31.726Z,97284.09
2022-09-03T11:59:17.367Z,97289.28
2022-09-03T12:01:59.538Z,97285.19
2022-09-03T12:05:09.121Z,97289.00
2022-09-03T12:08:09.133Z,97298.28
2022-09-03T12:11:14.083Z,97297.47
2022-09-03T12:14:27.351Z,97298.28
2022-09-03T12:17:22.607Z,97301.53
2022-09-03T12:19:57.761Z,97290.63
2022-09-03T12:22:31.322Z,97303.13
2022-09-03T12:25:15.185Z,97311.31
2022-09-03T12:27:46.697Z,97315.84
2022-09-03T12:30:21.575Z,97320.22
2022-09-03T12:32:51.461Z,97325.13
2022-09-03T12:38:18.469Z,97332.16
2022-09-03T12:43:38.719Z,97370.94
2022-09-03T12:46:15.826Z,97387.84
2022-09-03T12:52:33.685Z,97394.34
2022-09-03T12:55:33.016Z,97378.19
2022-09-03T12:58:25.524Z,97380.69
2022-09-03T13:01:26.833Z,97388.69
2022-09-03T13:04:24.799Z,97399.97
2022-09-03T13:07:44.691Z,97386.09
2022-09-03T13:10:30.405Z,97385.38
2022-09-03T13:13:18.862Z,97374.47
2022-09-03T13:16:36.162Z,97362.50
2022-09-03T13:19:34.948Z,97357.97
2022-09-03T13:22:35.055Z,97360.69
2022-09-03T13:25:42.412Z,97362.91
2022-09-03T13:28:50.555Z,97355.97
2022-09-03T13:31:44.617Z,97363.03
2022-09-03T13:34:20.910Z,97346.38
2022-09-03T13:37:34.136Z,97348.19
2022-09-03T13:40:29.481Z,97345.72
2022-09-03T13:43:13.550Z,97345.22
2022-09-03T13:46:18.352Z,97345.63
2022-09-03T13:49:06.899Z,97338.66
2022-09-03T13:51:51.749Z,97336.91
2022-09-03T13:54:49.010Z,97322.09
2022-09-03T13:58:02.081Z,97313.84
2022-09-03T14:00:55.402Z,97325.53
2022-09-03T14:03:54.984Z,97321.69
2022-09-03T14:06:59.763Z,97314.81
2022-09-03T14:09:57.438Z,97316.50
2022-09-03T14:13:10.844Z,97319.16
2022-09-03T14:16:14.028Z,97328.88
2022-09-03T14:19:12.469Z,97325.22
2022-09-03T14:21:55.025Z,97318.66
2022-09-03T14:24:43.408Z,97322.66
2022-09-03T14:27:11.280Z,97328.88
2022-09-03T14:29:50.238Z,97332.31
2022-09-03T14:32:29.875Z,97343.91
2022-09-03T14:35:17.600Z,97348.19
2022-09-03T14:38:13.603Z,97346.97
2022-09-03T14:41:00.999Z,97354.19
2022-09-03T14:43:56.710Z,97358.22
2022-09-03T14:47:09.211Z,97362.69
2022-09-03T14:49:47.471Z,97368.06
2022-09-03T14:52:30.843Z,97370.44
2022-09-03T14:55:36.620Z,97373.09
2022-09-03T14:58:19.647Z,97377.53
2022-09-03T15:01:15.333Z,97364.63
2022-09-03T15:04:34.031Z,97367.84
2022-09-03T15:07:12.573Z,97346.25
2022-09-03T15:10:05.160Z,97351.16
2022-09-03T15:13:10.428Z,97350.22
2022-09-03T15:15:41.564Z,97356.63
2022-09-03T15:18:47.366Z,97351.06
2022-09-03T15:21:32.495Z,97360.72
2022-09-03T15:24:17.823Z,97363.03
2022-09-03T15:27:10.023Z,97370.88
2022-09-03T15:30:08.546Z,97362.97
2022-09-03T15:33:13.421Z,97363.03
2022-09-03T15:36:01.600Z,97354.28
2022-09-03T15:38:41.507Z,97363.53
2022-09-03T15:41:41.086Z,97362.41
2022-09-03T15:44:41.938Z,97368.56
2022-09-03T15:47:53.999Z,97374.72
2022-09-03T15:50:38.449Z,97377.06
2022-09-03T15:53:58.152Z,97372.06
2022-09-03T15:56:47.681Z,97373.84
2022-09-03T15:59:42.758Z,97365.31
2022-09-03T16:02:28.271Z,97364.44
2022-09-03T16:05:10.000Z,97375.88
2022-09-03T16:07:38.457Z,97371.19
2022-09-03T16:10:30.791Z,97370.88
2022-09-03T16:13:32.014Z,97373.59
2022-09-03T16:16:23.476Z,97378.22
2022-09-03T16:19:12.001Z,97376.03
2022-09-03T16:22:05.920Z,97360.78
2022-09-03T16:24:54.391Z,97367.72
2022-09-03T16:27:47.423Z,97362.50
2022-09-03T16:30:40.688Z,97360.81
2022-09-03T16:33:33.438Z,97367.09
2022-09-03T16:36:24.634Z,97364.63
2022-09-03T16:39:26.292Z,97366.28
2022-09-03T16:42:37.003Z,97368.16
2022-09-03T16:45:17.282Z,97372.28
2022-09-03T16:48:02.690Z,97364.94
2022-09-03T16:51:05.966Z,97369.28
2022-09-03T16:54:19.941Z,97379.66
2022-09-03T16:57:24.560Z,97371.19
2022-09-03T17:00:09.043Z,97375.75
2022-09-03T17:03:03.823Z,97372.41
2022-09-03T17:05:43.711Z,97372.66
2022-09-03T17:08:40.694Z,97372.59
2022-09-03T17:11:51.436Z,97371.72
2022-09-03T17:15:04.397Z,97375.22
2022-09-03T17:17:43.794Z,97373.25
2022-09-03T17:20:36.111Z,97377.53
2022-09-03T17:23:06.795Z,97375.06
2022-09-03T17:25:49.006Z,97380.69
2022-09-03T17:28:49.959Z,97387.19
2022-09-03T17:31:55.217Z,97376.25
2022-09-03T17:34:55.499Z,97378.66
2022-09-03T17:38:02.171Z,97383.25
2022-09-03T17:40:48.951Z,97389.94
2022-09-03T17:43:45.680Z,97396.84
2022-09-03T17:46:51.977Z,97397.59
2022-09-03T17:49:49.126Z,97406.50
2022-09-03T17:52:33.232Z,97416.00
2022-09-03T17:55:28.989Z,97418.63
2022-09-03T17:58:22.730Z,97416.59
2022-09-03T18:01:05.416Z,97421.69
2022-09-03T18:03:54.065Z,97428.56
2022-09-03T18:07:06.086Z,97439.00
2022-09-03T18:09:46.236Z,97432.19
2022-09-03T18:12:30.368Z,97434.00
2022-09-03T18:15:25.556Z,97438.28
2022-09-03T18:18:26.722Z,97440.31
2022-09-03T18:21:24.323Z,97438.56
2022-09-03T18:24:40.256Z,97443.31
2022-09-03T18:27:48.704Z,97435.69
2022-09-03T18:30:35.870Z,97444.88
2022-09-03T18:33:22.626Z,97444.31
2022-09-03T18:36:09.172Z,97448.91
2022-09-03T18:38:58.131Z,97455.66
2022-09-03T18:42:04.532Z,97457.53
2022-09-03T18:45:24.184Z,97454.25
2022-09-03T18:48:22.659Z,97450.72
2022-09-03T18:51:55.037Z,97453.66
2022-09-03T18:55:09.706Z,97460.19
2022-09-03T18:58:36.146Z,97461.00
2022-09-03T19:01:53.473Z,97464.75
2022-09-03T19:05:07.624Z,97463.72
2022-09-03T19:08:25.359Z,97464.19
2022-09-03T19:11:53.624Z,97459.72
2022-09-03T19:15:13.744Z,97475.19
2022-09-03T19:18:26.000Z,97473.47
2022-09-03T19:22:00.199Z,97476.31
2022-09-03T19:24:49.849Z,97472.31
2022-09-03T19:27:57.252Z,97477.16
2022-09-03T19:31:10.907Z,97477.03
2022-09-03T19:34:34.434Z,97481.06
2022-09-03T19:37:44.471Z,97491.06
2022-09-03T19:40:47.532Z,97490.72
2022-09-03T19:43:51.962Z,97502.06
2022-09-03T19:46:53.780Z,97495.84
2022-09-03T19:50:13.226Z,97495.47
2022-09-03T19:53:25.302Z,97498.66
2022-09-03T19:56:19.128Z,97499.41
2022-09-03T19:59:16.956Z,97502.69
2022-09-03T20:02:05.461Z,97506.72
2022-09-03T20:05:03.028Z,97514.19
2022-09-03T20:07:50.649Z,97511.75
2022-09-03T20:10:25.050Z,97506.56
2022-09-03T20:13:14.711Z,97507.38
2022-09-03T20:15:51.314Z,97507.38
2022-09-03T20:18:52.743Z,97501.88
2022-09-03T20:21:26.779Z,97506.69
2022-09-03T20:24:01.215Z,97509.66
2022-09-03T20:26:31.909Z,97514.22
2022-09-03T20:29:05.744Z,97516.63
2022-09-03T20:32:22.531Z,97524.13
2022-09-03T20:35:19.463Z,97522.03
2022-09-03T20:38:01.073Z,97529.09
2022-09-03T20:40:59.617Z,97528.50
2022-09-03T20:44:22.783Z,97529.31
2022-09-03T20:47:25.302Z,97532.63
2022-09-03T20:50:48.753Z,97536.19
2022-09-03T20:53:33.192Z,97533.13
2022-09-03T20:56:12.884Z,97531.59
2022-09-03T20:59:02.555Z,97532.88
2022-09-03T21:01:52.425Z,97530.66
2022-09-03T21:05:01.247Z,97526.19
2022-09-03T21:08:03.408Z,97540.78
2022-09-03T21:11:08.813Z,97535.00
2022-09-03T21:13:50.143Z,97538.44
2022-09-03T21:17:25.482Z,97546.78
2022-09-03T21:20:30.044Z,97544.66
2022-09-03T21:23:28.474Z,97548.69
2022-09-03T21:26:15.023Z,97546.19
2022-09-03T21:28:53.543Z,97544.91
2022-09-03T21:31:59.166Z,97548.19
2022-09-03T21:34:41.006Z,97550.44
2022-09-03T21:37:14.010Z,97549.41
2022-09-03T21:39:51.982Z,97553.50
2022-09-03T21:42:48.974Z,97544.31
2022-09-03T21:45:40.089Z,97554.44
2022-09-03T21:48:22.792Z,97561.28
2022-09-03T21:51:00.675Z,97562.94
2022-09-03T21:53:39.690Z,97568.34
2022-09-03T21:56:30.327Z,97581.31
2022-09-03T21:59:19.808Z,97580.25
2022-09-03T22:02:37.577Z,97586.25
2022-09-03T22:05:06.047Z,97578.94
2022-09-03T22:07:53.398Z,97580.47
2022-09-03T22:10:40.062Z,97574.25
2022-09-03T22:13:38.428Z,97574.97
2022-09-03T22:16:33.742Z,97569.19
2022-09-03T22:19:01.562Z,97570.13
2022-09-03T22:21:44.435Z,97571.03
2022-09-03T22:24:24.597Z,97578.72
2022-09-03T22:27:22.658Z,97578.13
2022-09-03T22:30:11.378Z,97570.22
2022-09-03T22:32:59.932Z,97576.72
2022-09-03T22:35:59.299Z,97571.97
2022-09-03T22:39:22.484Z,97572.81
2022-09-03T22:42:10.153Z,97564.22
2022-09-03T22:45:23.808Z,97564.69
2022-09-03T22:48:10.272Z,97571.41
2022-09-03T22:51:06.553Z,97564.34
2022-09-03T22:53:46.083Z,97571.97
2022-09-03T22:56:23.981Z,97571.53
2022-09-03T22:59:07.426Z,97568.81
2022-09-03T23:02:06.046Z,97576.94
2022-09-03T23:05:21.042Z,97572.81
2022-09-03T23:08:14.437Z,97570.56
2022-09-03T23:10:54.131Z,97582.22
2022-09-03T23:13:42.064Z,97578.34
2022-09-03T23:16:37.774Z,97577.63
2022-09-03T23:19:46.542Z,97582.69
2022-09-03T23:22:41.776Z,97574.56
2022-09-03T23:25:33.518Z,97583.38
2022-09-03T23:28:09.531Z,97580.03
2022-09-03T23:33:05.334Z,97585.31
2022-09-03T23:35:56.560Z,97585.31
2022-09-03T23:38:51.242Z,97590.72
2022-09-03T23:41:43.172Z,97592.84
2022-09-03T23:45:15.369Z,97606.28
2022-09-03T23:47:51.691Z,97594.84
2022-09-03T23:50:52.875Z,97603.28
2022-09-03T23:53:37.431Z,97604.56
2022-09-03T23:56:34.726Z,97601.13
2022-09-03T23:59:28.853Z,97601.47
